Alt de Juncos, Puerto Rico
Current Conditions -  °F | °C
As of 12:50 PM on Thursday 30 Oct 2014 (Local Time) from TJBQ Reporting Station
Scattered Clouds Scattered Clouds  
Wind Chill: 84°   Ceiling: Unl
Heat Index: 92°   Visibility: 10mi
Dew Point: 75°   Wind: 10mph
Humidity: 74%   Direction: 30°NNE
Pressure: 29.84"   Gusts: NA
Location:  18.4739°N, 66.7295°W
Report Text: TJBQ 301650Z 03009KT 10SM SCT020 29/24 A2984 RMK RWY08 ATIS Y
Loading
Personal Weather Stations






























Interactive Weather Map
Tropical Storm Tracking
New forecast layout! Learn more

10-Day Weather Forecast

Advertisements
Track Severe Weather on mobile